createdAt,value
2019-06-10T00:00:36.199Z,23.20
2019-06-10T00:01:38.050Z,23.20
2019-06-10T00:02:41.393Z,23.30
2019-06-10T00:03:43.187Z,23.30
2019-06-10T00:04:44.817Z,23.20
2019-06-10T00:05:46.413Z,23.20
2019-06-10T00:06:48.162Z,23.30
2019-06-10T00:07:51.634Z,23.30
2019-06-10T00:08:53.540Z,23.30
2019-06-10T00:09:56.164Z,23.30
2019-06-10T00:10:58.240Z,23.30
2019-06-10T00:12:02.763Z,23.30
2019-06-10T00:13:07.320Z,23.20
2019-06-10T00:14:10.715Z,23.30
2019-06-10T00:15:12.649Z,23.30
2019-06-10T00:16:14.248Z,23.30
2019-06-10T00:17:15.931Z,23.30
2019-06-10T00:18:37.296Z,23.30
2019-06-10T00:19:21.722Z,23.20
2019-06-10T00:20:23.843Z,23.30
2019-06-10T00:21:25.536Z,23.20
2019-06-10T00:22:27.229Z,23.20
2019-06-10T00:23:28.845Z,23.20
2019-06-10T00:24:31.450Z,23.20
2019-06-10T00:25:33.607Z,23.20
2019-06-10T00:26:35.201Z,23.20
2019-06-10T00:27:37.302Z,23.20
2019-06-10T00:28:40.678Z,23.20
2019-06-10T00:29:42.725Z,23.20
2019-06-10T00:30:44.353Z,23.20
2019-06-10T00:31:46.033Z,23.10
2019-06-10T00:32:47.611Z,23.10
2019-06-10T00:33:51.769Z,23.10
2019-06-10T00:34:53.274Z,23.10
2019-06-10T00:35:54.966Z,23.10
2019-06-10T00:36:56.655Z,23.10
2019-06-10T00:37:59.567Z,23.00
2019-06-10T00:39:03.501Z,23.00
2019-06-10T00:40:07.636Z,23.00
2019-06-10T00:41:13.720Z,23.00
2019-06-10T00:42:15.204Z,23.00
2019-06-10T00:43:16.697Z,23.00
2019-06-10T00:44:20.433Z,23.00
2019-06-10T00:45:22.234Z,23.00
2019-06-10T00:46:23.811Z,23.00
2019-06-10T00:47:25.498Z,23.00
2019-06-10T00:48:29.331Z,23.00
2019-06-10T00:49:31.721Z,22.90
2019-06-10T00:50:33.654Z,22.90
2019-06-10T00:51:35.354Z,22.90
2019-06-10T00:52:36.942Z,22.90
2019-06-10T00:53:38.676Z,22.80
2019-06-10T00:54:41.750Z,22.80
2019-06-10T00:55:43.918Z,22.80
2019-06-10T00:56:45.623Z,22.90
2019-06-10T00:57:47.309Z,22.90
2019-06-10T00:58:51.219Z,22.90
2019-06-10T00:59:52.547Z,22.80
2019-06-10T01:00:54.248Z,22.80
2019-06-10T01:01:56.166Z,22.80
2019-06-10T01:03:00.673Z,22.80
2019-06-10T01:04:03.794Z,22.80
2019-06-10T01:05:05.408Z,22.80
2019-06-10T01:06:08.430Z,22.80
2019-06-10T01:07:11.696Z,22.80
2019-06-10T01:08:15.805Z,22.80
2019-06-10T01:09:17.390Z,22.70
2019-06-10T01:10:21.075Z,22.70
2019-06-10T01:11:27.014Z,22.70
2019-06-10T01:12:26.097Z,22.70
2019-06-10T01:13:27.681Z,22.70
2019-06-10T01:14:29.330Z,22.70
2019-06-10T01:15:31.196Z,22.60
2019-06-10T01:16:32.927Z,22.60
2019-06-10T01:17:34.630Z,22.60
2019-06-10T01:18:38.562Z,22.60
2019-06-10T01:19:41.517Z,22.60
2019-06-10T01:20:43.218Z,22.60
2019-06-10T01:21:45.243Z,22.60
2019-06-10T01:22:47.289Z,22.50
2019-06-10T01:23:50.964Z,22.50
2019-06-10T01:24:52.499Z,22.50
2019-06-10T01:25:54.205Z,22.50
2019-06-10T01:26:55.769Z,22.50
2019-06-10T01:27:57.456Z,22.50
2019-06-10T01:29:00.968Z,22.50
2019-06-10T01:30:10.198Z,22.40
2019-06-10T01:31:12.118Z,22.40
2019-06-10T01:32:13.761Z,22.50
2019-06-10T01:33:17.522Z,22.50
2019-06-10T01:34:21.548Z,22.40
2019-06-10T01:35:22.995Z,22.40
2019-06-10T01:36:24.672Z,22.50
2019-06-10T01:37:26.353Z,22.50
2019-06-10T01:38:28.049Z,22.50
2019-06-10T01:39:30.839Z,22.50
2019-06-10T01:40:32.918Z,22.40
2019-06-10T01:41:34.837Z,22.40
2019-06-10T01:42:36.430Z,22.40
2019-06-10T01:43:40.659Z,22.50
2019-06-10T01:44:41.829Z,22.40
2019-06-10T01:45:43.549Z,22.40
2019-06-10T01:46:45.534Z,22.40
2019-06-10T01:47:47.221Z,22.40
2019-06-10T01:48:51.717Z,22.40
2019-06-10T01:49:52.187Z,22.40
2019-06-10T01:50:53.938Z,22.40
2019-06-10T01:51:55.658Z,22.40
2019-06-10T01:52:57.239Z,22.40
2019-06-10T01:54:01.187Z,22.40
2019-06-10T01:55:04.925Z,22.40
2019-06-10T01:56:07.726Z,22.40
2019-06-10T01:57:12.267Z,22.40
2019-06-10T01:58:16.084Z,22.40
2019-06-10T01:59:17.004Z,22.40
2019-06-10T02:00:25.613Z,22.40
2019-06-10T02:01:44.568Z,22.30
2019-06-10T02:02:46.209Z,22.30
2019-06-10T02:03:47.861Z,22.30
2019-06-10T02:04:51.653Z,22.30
2019-06-10T02:05:52.841Z,22.30
2019-06-10T02:06:54.881Z,22.30
2019-06-10T02:07:56.578Z,22.30
2019-06-10T02:09:04.830Z,22.30
2019-06-10T02:10:07.102Z,22.20
2019-06-10T02:11:09.216Z,22.30
2019-06-10T02:12:15.888Z,22.20
2019-06-10T02:13:32.707Z,22.20
2019-06-10T02:14:34.685Z,22.20
2019-06-10T02:15:36.375Z,22.10
2019-06-10T02:16:37.963Z,22.10
2019-06-10T02:17:41.580Z,22.10
2019-06-10T02:18:56.867Z,22.20
2019-06-10T02:19:46.482Z,22.10
2019-06-10T02:20:48.171Z,22.10
2019-06-10T02:21:51.060Z,22.10
2019-06-10T02:22:52.995Z,22.10
2019-06-10T02:23:54.591Z,22.10
2019-06-10T02:24:56.647Z,22.10
2019-06-10T02:26:01.056Z,22.10
2019-06-10T02:27:01.825Z,22.10
2019-06-10T02:28:03.558Z,22.10
2019-06-10T02:29:05.148Z,22.10
2019-06-10T02:30:15.000Z,22.00
2019-06-10T02:31:14.213Z,22.00
2019-06-10T02:32:18.676Z,22.00
2019-06-10T02:33:22.745Z,22.00
2019-06-10T02:34:26.842Z,22.00
2019-06-10T02:35:38.135Z,22.00
2019-06-10T02:36:31.839Z,22.00
2019-06-10T02:37:53.732Z,21.90
2019-06-10T02:38:54.722Z,21.90
2019-06-10T02:39:56.317Z,21.90
2019-06-10T02:40:57.886Z,21.90
2019-06-10T02:42:04.411Z,21.90
2019-06-10T02:43:05.585Z,21.80
2019-06-10T02:44:07.306Z,21.80
2019-06-10T02:45:13.800Z,21.80
2019-06-10T02:46:16.052Z,21.80
2019-06-10T02:47:22.626Z,21.80
2019-06-10T02:48:24.684Z,21.70
2019-06-10T02:49:46.595Z,21.70
2019-06-10T02:50:40.111Z,21.70
2019-06-10T02:51:43.752Z,21.60
2019-06-10T02:52:45.116Z,21.60
2019-06-10T02:53:46.703Z,21.60
2019-06-10T02:54:48.520Z,21.60
2019-06-10T02:55:53.560Z,21.60
2019-06-10T02:56:54.068Z,21.60
2019-06-10T02:57:55.946Z,21.60
2019-06-10T02:58:57.654Z,21.60
2019-06-10T02:59:59.275Z,21.60
2019-06-10T03:01:04.945Z,21.60
2019-06-10T03:02:06.628Z,21.60
2019-06-10T03:03:08.325Z,21.60
2019-06-10T03:04:13.504Z,21.60
2019-06-10T03:05:14.349Z,21.70
2019-06-10T03:06:19.874Z,21.70
2019-06-10T03:07:25.568Z,21.70
2019-06-10T03:08:27.294Z,21.70
2019-06-10T03:09:31.863Z,21.70
2019-06-10T03:10:36.216Z,21.70
2019-06-10T03:11:37.077Z,21.70
2019-06-10T03:12:38.870Z,21.60
2019-06-10T03:13:42.482Z,21.70
2019-06-10T03:14:43.962Z,21.60
2019-06-10T03:16:05.525Z,21.60
2019-06-10T03:17:17.844Z,21.70
2019-06-10T03:18:19.927Z,21.60
2019-06-10T03:19:39.678Z,21.60
2019-06-10T03:20:44.698Z,21.60
2019-06-10T03:21:46.298Z,21.60
2019-06-10T03:22:47.910Z,21.60
2019-06-10T03:23:49.903Z,21.60
2019-06-10T03:24:52.380Z,21.60
2019-06-10T03:26:04.178Z,21.60
2019-06-10T03:27:06.282Z,21.60
2019-06-10T03:28:07.865Z,21.60
2019-06-10T03:29:09.462Z,21.60
2019-06-10T03:30:17.069Z,21.60
2019-06-10T03:31:15.509Z,21.60
2019-06-10T03:32:20.171Z,21.60
2019-06-10T03:33:27.658Z,21.60
2019-06-10T03:34:33.619Z,21.60
2019-06-10T03:35:28.511Z,21.60
2019-06-10T03:36:32.243Z,21.60
2019-06-10T03:37:34.029Z,21.60
2019-06-10T03:38:37.077Z,21.60
2019-06-10T03:39:38.846Z,21.60
2019-06-10T03:40:43.294Z,21.60
2019-06-10T03:41:44.194Z,21.60
2019-06-10T03:42:46.240Z,21.60
2019-06-10T03:43:47.832Z,21.60
2019-06-10T03:45:09.205Z,21.60
2019-06-10T03:46:13.347Z,21.70
2019-06-10T03:47:14.307Z,21.70
2019-06-10T03:48:17.177Z,21.70
2019-06-10T03:49:19.155Z,21.70
2019-06-10T03:50:23.961Z,21.70
2019-06-10T03:51:27.433Z,21.70
2019-06-10T03:52:28.522Z,21.80
2019-06-10T03:53:30.736Z,21.80
2019-06-10T03:54:33.129Z,21.80
2019-06-10T03:55:34.742Z,21.80
2019-06-10T03:56:36.471Z,21.80
2019-06-10T03:57:38.141Z,21.90
2019-06-10T03:58:42.775Z,21.80
2019-06-10T03:59:43.990Z,21.80
2019-06-10T04:00:45.605Z,21.90
2019-06-10T04:01:47.284Z,21.90
2019-06-10T04:02:48.866Z,21.90
2019-06-10T04:03:52.818Z,21.90
2019-06-10T04:04:53.847Z,22.00
2019-06-10T04:05:55.835Z,22.00
2019-06-10T04:06:57.524Z,21.90
2019-06-10T04:07:59.105Z,22.00
2019-06-10T04:09:02.876Z,22.00
2019-06-10T04:10:05.802Z,22.00
2019-06-10T04:11:07.413Z,22.00
2019-06-10T04:12:09.109Z,21.90
2019-06-10T04:13:13.059Z,21.90
2019-06-10T04:14:14.195Z,21.90
2019-06-10T04:15:15.768Z,21.90
2019-06-10T04:16:17.658Z,21.90
2019-06-10T04:17:19.606Z,21.90
2019-06-10T04:18:24.193Z,21.90
2019-06-10T04:19:25.817Z,22.00
2019-06-10T04:20:29.524Z,22.00
2019-06-10T04:21:32.679Z,22.00
2019-06-10T04:22:34.522Z,22.10
2019-06-10T04:23:36.611Z,22.10
2019-06-10T04:24:39.177Z,22.10
2019-06-10T04:25:42.733Z,22.10
2019-06-10T04:26:44.382Z,22.10
2019-06-10T04:27:45.969Z,22.10
2019-06-10T04:28:47.671Z,22.10
2019-06-10T04:29:49.278Z,22.10
2019-06-10T04:30:53.454Z,22.10
2019-06-10T04:31:54.505Z,22.10
2019-06-10T04:32:56.198Z,22.20
2019-06-10T04:33:57.779Z,22.20
2019-06-10T04:34:59.366Z,22.20
2019-06-10T04:36:02.983Z,22.20
2019-06-10T04:37:04.487Z,22.20
2019-06-10T04:38:06.186Z,22.30
2019-06-10T04:39:07.887Z,22.40
2019-06-10T04:40:09.777Z,22.40
2019-06-10T04:41:14.238Z,22.40
2019-06-10T04:42:15.957Z,22.40
2019-06-10T04:43:18.412Z,22.40
2019-06-10T04:44:21.225Z,22.50
2019-06-10T04:45:25.089Z,22.40
2019-06-10T04:46:28.350Z,22.50
2019-06-10T04:47:33.107Z,22.50
2019-06-10T04:48:34.201Z,22.50
2019-06-10T04:49:35.882Z,22.50
2019-06-10T04:50:45.491Z,22.40
2019-06-10T04:51:43.199Z,22.40
2019-06-10T04:52:44.409Z,22.40
2019-06-10T04:53:46.351Z,22.40
2019-06-10T04:54:47.921Z,22.30
2019-06-10T04:55:49.526Z,22.30
2019-06-10T04:56:52.966Z,22.40
2019-06-10T04:57:54.742Z,22.40
2019-06-10T04:58:56.429Z,22.40
2019-06-10T04:59:58.133Z,22.40
2019-06-10T05:01:02.800Z,22.40
2019-06-10T05:02:05.643Z,22.50
2019-06-10T05:03:07.061Z,22.50
2019-06-10T05:04:08.753Z,22.50
2019-06-10T05:05:12.896Z,22.60
2019-06-10T05:06:13.728Z,22.60
2019-06-10T05:07:15.325Z,22.70
2019-06-10T05:08:17.045Z,22.70
2019-06-10T05:09:19.107Z,22.80
2019-06-10T05:10:23.666Z,22.80
2019-06-10T05:11:26.932Z,22.80
2019-06-10T05:12:27.994Z,22.80
2019-06-10T05:13:30.071Z,22.80
2019-06-10T05:14:33.439Z,22.80
2019-06-10T05:15:35.230Z,22.80
2019-06-10T05:16:36.768Z,22.80
2019-06-10T05:17:38.360Z,22.80
2019-06-10T05:18:42.162Z,22.90
2019-06-10T05:19:43.636Z,22.90
2019-06-10T05:20:54.867Z,22.90
2019-06-10T05:21:48.830Z,23.00
2019-06-10T05:22:52.707Z,23.00
2019-06-10T05:23:54.063Z,23.10
2019-06-10T05:24:55.761Z,23.10
2019-06-10T05:25:57.467Z,23.10
2019-06-10T05:26:59.046Z,23.10
2019-06-10T05:28:02.771Z,23.20
2019-06-10T05:29:04.088Z,23.20
2019-06-10T05:30:07.374Z,23.30
2019-06-10T05:31:09.432Z,23.30
2019-06-10T05:32:12.765Z,23.20
2019-06-10T05:33:14.619Z,23.20
2019-06-10T05:34:16.347Z,23.30
2019-06-10T05:35:18.011Z,23.30
2019-06-10T05:36:20.636Z,23.40
2019-06-10T05:37:26.335Z,23.40
2019-06-10T05:38:29.107Z,23.50
2019-06-10T05:39:34.734Z,23.50
2019-06-10T05:40:34.518Z,23.50
2019-06-10T05:41:36.209Z,23.50
2019-06-10T05:42:37.917Z,23.60
2019-06-10T05:43:39.510Z,23.60
2019-06-10T05:44:43.086Z,23.70
2019-06-10T05:45:47.703Z,23.70
2019-06-10T05:46:56.181Z,23.70
2019-06-10T05:47:58.089Z,23.70
2019-06-10T05:48:59.780Z,23.70
2019-06-10T05:50:22.517Z,23.70
2019-06-10T05:51:26.115Z,23.80
2019-06-10T05:52:29.041Z,23.90
2019-06-10T05:53:33.537Z,23.90
2019-06-10T05:54:35.458Z,23.90
2019-06-10T05:55:37.408Z,23.90
2019-06-10T05:56:40.038Z,23.90
2019-06-10T05:57:42.775Z,23.90
2019-06-10T05:58:44.646Z,23.90
2019-06-10T05:59:46.234Z,23.90
2019-06-10T06:00:47.927Z,24.00
2019-06-10T06:01:49.632Z,24.00
2019-06-10T06:02:52.283Z,24.00
2019-06-10T06:03:54.263Z,24.00
2019-06-10T06:04:55.918Z,24.00
2019-06-10T06:05:57.535Z,24.10
2019-06-10T06:06:59.233Z,24.10
2019-06-10T06:08:05.670Z,24.20
2019-06-10T06:09:05.826Z,24.20
2019-06-10T06:10:08.538Z,24.20
2019-06-10T06:11:12.415Z,24.30
2019-06-10T06:12:14.380Z,24.30
2019-06-10T06:13:16.559Z,24.30
2019-06-10T06:14:18.641Z,24.30
2019-06-10T06:15:22.106Z,24.40
2019-06-10T06:16:23.738Z,24.40
2019-06-10T06:17:25.856Z,24.50
2019-06-10T06:18:27.940Z,24.50
2019-06-10T06:19:30.329Z,24.60
2019-06-10T06:20:35.768Z,24.60
2019-06-10T06:21:42.692Z,24.60
2019-06-10T06:22:39.938Z,24.60
2019-06-10T06:23:43.688Z,24.70
2019-06-10T06:24:45.132Z,24.70
2019-06-10T06:25:47.215Z,24.70
2019-06-10T06:26:48.843Z,24.70
2019-06-10T06:27:52.478Z,24.70
2019-06-10T06:28:54.095Z,24.80
2019-06-10T06:29:55.776Z,24.80
2019-06-10T06:30:57.574Z,24.90
2019-06-10T06:31:59.215Z,24.90
2019-06-10T06:33:03.022Z,24.90
2019-06-10T06:34:04.455Z,24.90
2019-06-10T06:35:06.762Z,24.90
2019-06-10T06:36:08.458Z,25.00
2019-06-10T06:37:12.604Z,24.90
2019-06-10T06:38:13.542Z,25.00
2019-06-10T06:39:15.286Z,25.00
2019-06-10T06:40:18.015Z,25.00
2019-06-10T06:41:19.614Z,25.00
2019-06-10T06:42:22.878Z,25.00
2019-06-10T06:43:28.262Z,25.00
2019-06-10T06:44:29.593Z,25.10
2019-06-10T06:45:34.379Z,25.10
2019-06-10T06:46:37.598Z,25.20
2019-06-10T06:47:39.088Z,25.20
2019-06-10T06:48:43.656Z,25.30
2019-06-10T06:49:44.490Z,25.30
2019-06-10T06:51:00.549Z,25.40
2019-06-10T06:51:56.182Z,25.40
2019-06-10T06:53:18.694Z,25.50
2019-06-10T06:53:56.667Z,25.50
2019-06-10T06:54:58.775Z,25.60
2019-06-10T06:56:02.988Z,25.60
2019-06-10T06:57:04.045Z,25.60
2019-06-10T06:58:05.750Z,25.60
2019-06-10T06:59:07.362Z,25.60
2019-06-10T07:00:37.315Z,25.50
2019-06-10T07:01:14.996Z,25.50
2019-06-10T07:02:17.337Z,25.50
2019-06-10T07:03:18.914Z,25.50
2019-06-10T07:04:23.422Z,25.50
2019-06-10T07:05:24.638Z,25.50
2019-06-10T07:06:26.261Z,25.60
2019-06-10T07:07:30.147Z,25.60
2019-06-10T07:08:33.335Z,25.60
2019-06-10T07:09:57.726Z,25.60
2019-06-10T07:11:02.844Z,25.60
2019-06-10T07:12:04.617Z,25.70
2019-06-10T07:13:07.259Z,25.70
2019-06-10T07:14:10.175Z,25.60
2019-06-10T07:15:12.729Z,25.60
2019-06-10T07:16:14.431Z,25.60
2019-06-10T07:17:16.122Z,25.60
2019-06-10T07:18:17.848Z,25.60
2019-06-10T07:19:22.492Z,25.60
2019-06-10T07:20:23.441Z,25.60
2019-06-10T07:21:25.046Z,25.70
2019-06-10T07:22:26.661Z,25.70
2019-06-10T07:23:28.394Z,25.70
2019-06-10T07:24:32.676Z,25.80
2019-06-10T07:25:36.664Z,25.80
2019-06-10T07:26:42.120Z,25.90
2019-06-10T07:27:45.213Z,26.00
2019-06-10T07:28:47.062Z,26.00
2019-06-10T07:29:47.530Z,26.00
2019-06-10T07:30:52.722Z,26.00
2019-06-10T07:31:53.600Z,26.00
2019-06-10T07:32:55.785Z,26.10
2019-06-10T07:33:57.498Z,26.10
2019-06-10T07:34:59.203Z,26.00
2019-06-10T07:36:03.308Z,26.10
2019-06-10T07:37:04.792Z,26.10
2019-06-10T07:38:06.498Z,26.00
2019-06-10T07:39:08.218Z,26.00
2019-06-10T07:40:09.919Z,26.00
2019-06-10T07:41:12.607Z,26.00
2019-06-10T07:42:14.672Z,26.00
2019-06-10T07:43:16.332Z,26.00
2019-06-10T07:44:18.176Z,26.00
2019-06-10T07:45:22.005Z,26.00
2019-06-10T07:46:23.305Z,26.00
2019-06-10T07:47:25.250Z,26.10
2019-06-10T07:48:26.942Z,26.10
2019-06-10T07:49:28.691Z,26.20
2019-06-10T07:50:32.911Z,26.20
2019-06-10T07:51:34.653Z,26.20
2019-06-10T07:52:37.413Z,26.30
2019-06-10T07:53:40.020Z,26.30
2019-06-10T07:54:44.989Z,26.30
2019-06-10T07:55:46.771Z,26.30
2019-06-10T07:56:50.724Z,26.40
2019-06-10T07:57:53.077Z,26.40
2019-06-10T07:58:55.429Z,26.40
2019-06-10T07:59:57.154Z,26.50
2019-06-10T08:00:58.843Z,26.40
2019-06-10T08:02:02.879Z,26.50
2019-06-10T08:03:03.953Z,26.50
2019-06-10T08:04:12.018Z,26.60
2019-06-10T08:05:13.859Z,26.60
2019-06-10T08:06:17.706Z,26.60
2019-06-10T08:07:19.402Z,26.70
2019-06-10T08:08:23.328Z,26.60
2019-06-10T08:09:24.787Z,26.70
2019-06-10T08:10:26.525Z,26.70
2019-06-10T08:11:30.437Z,26.70
2019-06-10T08:12:32.556Z,26.70
2019-06-10T08:13:35.200Z,26.70
2019-06-10T08:14:37.412Z,26.70
2019-06-10T08:15:39.757Z,26.70
2019-06-10T08:16:44.780Z,26.70
2019-06-10T08:17:45.739Z,26.70
2019-06-10T08:19:16.085Z,26.80
2019-06-10T08:19:54.150Z,26.80
2019-06-10T08:20:54.774Z,26.80
2019-06-10T08:21:56.512Z,26.90
2019-06-10T08:22:58.271Z,26.90
2019-06-10T08:24:08.975Z,26.90
2019-06-10T08:25:12.446Z,27.00
2019-06-10T08:26:14.291Z,27.00
2019-06-10T08:27:16.279Z,27.00
2019-06-10T08:28:17.983Z,27.00
2019-06-10T08:29:20.009Z,27.00
2019-06-10T08:30:23.986Z,27.00
2019-06-10T08:31:25.131Z,27.00
2019-06-10T08:32:26.839Z,27.00
2019-06-10T08:33:28.519Z,27.00
2019-06-10T08:34:32.786Z,27.00
2019-06-10T08:35:44.165Z,27.10
2019-06-10T08:36:39.575Z,27.20
2019-06-10T08:37:42.793Z,27.20
2019-06-10T08:38:46.839Z,27.30
2019-06-10T08:39:47.743Z,27.30
2019-06-10T08:40:52.318Z,27.40
2019-06-10T08:41:53.208Z,27.40
2019-06-10T08:42:54.896Z,27.40
2019-06-10T08:43:56.482Z,27.40
2019-06-10T08:45:00.053Z,27.40
2019-06-10T08:46:02.766Z,27.40
2019-06-10T08:47:04.690Z,27.30
2019-06-10T08:48:06.280Z,27.30
2019-06-10T08:49:07.989Z,27.30
2019-06-10T08:50:09.598Z,27.30
2019-06-10T08:51:12.522Z,27.30
2019-06-10T08:52:14.650Z,27.30
2019-06-10T08:53:18.189Z,27.40
2019-06-10T08:54:19.837Z,27.40
2019-06-10T08:55:22.841Z,27.40
2019-06-10T08:56:24.643Z,27.40
2019-06-10T08:57:26.340Z,27.50
2019-06-10T08:58:28.019Z,27.50
2019-06-10T08:59:32.516Z,27.50
2019-06-10T09:00:33.809Z,27.60
2019-06-10T09:01:35.661Z,27.60
2019-06-10T09:02:39.175Z,27.70
2019-06-10T09:03:43.576Z,27.70
2019-06-10T09:04:47.618Z,27.70
2019-06-10T09:05:50.921Z,27.80
2019-06-10T09:06:53.653Z,27.80
2019-06-10T09:07:54.967Z,27.80
2019-06-10T09:08:56.993Z,27.90
2019-06-10T09:09:58.667Z,27.90
2019-06-10T09:11:02.432Z,28.00
2019-06-10T09:12:03.780Z,28.00
2019-06-10T09:13:05.801Z,28.10
2019-06-10T09:14:07.383Z,28.10
2019-06-10T09:15:10.174Z,28.10
2019-06-10T09:16:18.881Z,28.10
2019-06-10T09:17:15.363Z,28.10
2019-06-10T09:18:19.957Z,28.10
2019-06-10T09:19:22.223Z,28.10
2019-06-10T09:20:24.099Z,28.20
2019-06-10T09:21:25.767Z,28.20
2019-06-10T09:22:27.348Z,28.30
2019-06-10T09:23:29.084Z,28.30
2019-06-10T09:24:32.823Z,28.40
2019-06-10T09:25:34.559Z,28.40
2019-06-10T09:26:36.315Z,28.40
2019-06-10T09:27:40.069Z,28.40
2019-06-10T09:28:45.056Z,28.50
2019-06-10T09:29:48.044Z,28.50
2019-06-10T09:30:54.075Z,28.50
2019-06-10T09:31:55.495Z,28.60
2019-06-10T09:32:56.862Z,28.60
2019-06-10T09:33:59.034Z,28.60
2019-06-10T09:35:03.202Z,28.60
2019-06-10T09:36:04.202Z,28.70
2019-06-10T09:37:06.274Z,28.70
2019-06-10T09:38:07.987Z,28.80
2019-06-10T09:39:09.703Z,28.90
2019-06-10T09:40:12.484Z,29.00
2019-06-10T09:41:14.400Z,29.00
2019-06-10T09:42:16.100Z,29.20
2019-06-10T09:43:18.987Z,29.20
2019-06-10T09:44:22.756Z,29.30
2019-06-10T09:45:25.186Z,29.20
2019-06-10T09:46:50.397Z,29.30
2019-06-10T09:47:58.813Z,29.40
2019-06-10T09:48:56.873Z,29.40
2019-06-10T09:49:59.208Z,29.40
2019-06-10T09:51:02.523Z,29.40
2019-06-10T09:52:04.391Z,29.40
2019-06-10T09:53:05.986Z,29.40
2019-06-10T09:54:07.666Z,29.40
2019-06-10T09:55:10.096Z,29.50
2019-06-10T09:56:12.508Z,29.60
2019-06-10T09:57:14.479Z,29.70
2019-06-10T09:58:16.264Z,29.70
2019-06-10T09:59:17.858Z,29.70
2019-06-10T10:00:44.552Z,29.80
2019-06-10T10:01:48.287Z,29.80
2019-06-10T10:02:50.438Z,29.90
2019-06-10T10:03:58.281Z,29.90
2019-06-10T10:04:58.249Z,29.90
2019-06-10T10:06:09.891Z,30.00
2019-06-10T10:07:03.112Z,30.00
2019-06-10T10:08:05.400Z,30.10
2019-06-10T10:09:07.501Z,30.20
2019-06-10T10:10:12.684Z,30.10
2019-06-10T10:11:13.924Z,30.20
2019-06-10T10:12:15.623Z,30.20
2019-06-10T10:13:17.318Z,30.30
2019-06-10T10:14:19.002Z,30.30
2019-06-10T10:15:29.896Z,30.30
2019-06-10T10:16:24.138Z,30.40
2019-06-10T10:17:25.829Z,30.40
2019-06-10T10:18:27.426Z,30.40
2019-06-10T10:19:36.146Z,30.30
2019-06-10T10:20:37.742Z,30.30
2019-06-10T10:21:41.461Z,30.20
2019-06-10T10:22:44.387Z,30.30
2019-06-10T10:23:56.554Z,30.30
2019-06-10T10:24:49.836Z,30.20
2019-06-10T10:25:56.368Z,30.20
2019-06-10T10:26:57.941Z,30.20
2019-06-10T10:27:59.072Z,30.20
2019-06-10T10:29:13.043Z,30.20
2019-06-10T10:30:18.809Z,30.20
2019-06-10T10:31:23.050Z,30.30
2019-06-10T10:32:23.884Z,30.30
2019-06-10T10:33:29.891Z,30.30
2019-06-10T10:34:29.072Z,30.30
2019-06-10T10:35:32.664Z,30.30
2019-06-10T10:36:34.175Z,30.20
2019-06-10T10:37:35.923Z,30.20
2019-06-10T10:38:37.616Z,30.30
2019-06-10T10:39:39.211Z,30.40
2019-06-10T10:40:43.981Z,30.50
2019-06-10T10:41:46.761Z,30.60
2019-06-10T10:42:53.942Z,30.60
2019-06-10T10:43:56.571Z,30.70
2019-06-10T10:44:58.849Z,30.70
2019-06-10T10:46:05.068Z,30.70
2019-06-10T10:47:03.859Z,30.80
2019-06-10T10:48:05.746Z,30.80
2019-06-10T10:49:07.437Z,30.70
2019-06-10T10:50:09.738Z,30.70
2019-06-10T10:51:13.042Z,30.60
2019-06-10T10:52:14.824Z,30.50
2019-06-10T10:53:16.835Z,30.40
2019-06-10T10:54:29.852Z,30.30
2019-06-10T10:55:22.351Z,30.40
2019-06-10T10:56:24.025Z,30.40
2019-06-10T10:57:25.714Z,30.40
2019-06-10T10:58:27.438Z,30.50
2019-06-10T10:59:29.126Z,30.40
2019-06-10T11:00:41.442Z,30.50
2019-06-10T11:01:44.113Z,30.40
2019-06-10T11:02:48.717Z,30.50
2019-06-10T11:03:51.411Z,30.40
2019-06-10T11:04:56.907Z,30.40
2019-06-10T11:06:00.676Z,30.50
2019-06-10T11:07:01.192Z,30.40
2019-06-10T11:08:05.304Z,30.40
2019-06-10T11:09:07.808Z,30.40
2019-06-10T11:10:12.503Z,30.40
2019-06-10T11:11:14.065Z,30.40
2019-06-10T11:12:16.506Z,30.40
2019-06-10T11:13:22.320Z,30.40
2019-06-10T11:14:24.612Z,30.40
2019-06-10T11:15:27.629Z,30.40
2019-06-10T11:16:29.358Z,30.40
2019-06-10T11:17:33.685Z,30.40
2019-06-10T11:18:34.579Z,30.50
2019-06-10T11:19:36.165Z,30.50
2019-06-10T11:20:37.792Z,30.60
2019-06-10T11:21:39.818Z,30.60
2019-06-10T11:22:43.347Z,30.70
2019-06-10T11:23:46.234Z,30.80
2019-06-10T11:24:49.325Z,30.80
2019-06-10T11:25:55.241Z,30.90
2019-06-10T11:26:56.436Z,31.00
2019-06-10T11:27:57.950Z,31.00
2019-06-10T11:29:02.237Z,31.00
2019-06-10T11:30:05.978Z,31.00
2019-06-10T11:31:08.098Z,31.00
2019-06-10T11:32:09.708Z,31.00
2019-06-10T11:33:11.317Z,31.10
2019-06-10T11:34:12.990Z,31.10
2019-06-10T11:35:14.566Z,31.10
2019-06-10T11:36:16.301Z,31.10
2019-06-10T11:37:17.998Z,31.00
2019-06-10T11:38:19.582Z,31.10
2019-06-10T11:39:22.562Z,31.10
2019-06-10T11:40:24.362Z,31.20
2019-06-10T11:41:26.126Z,31.20
2019-06-10T11:42:28.050Z,31.30
2019-06-10T11:43:29.729Z,31.30
2019-06-10T11:44:33.398Z,31.30
2019-06-10T11:45:34.910Z,31.30
2019-06-10T11:46:36.724Z,31.40
2019-06-10T11:47:38.297Z,31.40
2019-06-10T11:48:40.004Z,31.50
2019-06-10T11:49:43.436Z,31.60
2019-06-10T11:50:45.179Z,31.60
2019-06-10T11:51:47.171Z,31.60
2019-06-10T11:52:49.613Z,31.70
2019-06-10T11:53:54.556Z,31.70
2019-06-10T11:55:08.891Z,31.70
2019-06-10T11:55:59.277Z,31.60
2019-06-10T11:57:00.923Z,31.60
2019-06-10T11:58:02.939Z,31.50
2019-06-10T11:59:09.351Z,31.60
2019-06-10T12:00:14.800Z,31.60
2019-06-10T12:01:13.441Z,31.60
2019-06-10T12:02:15.346Z,31.60
2019-06-10T12:03:16.924Z,31.60
2019-06-10T12:04:18.527Z,31.50
2019-06-10T12:05:23.426Z,31.50
2019-06-10T12:06:24.865Z,31.50
2019-06-10T12:07:26.888Z,31.60
2019-06-10T12:08:28.486Z,31.60
2019-06-10T12:09:30.079Z,31.60
2019-06-10T12:10:33.090Z,31.70
2019-06-10T12:11:34.867Z,31.70
2019-06-10T12:12:36.606Z,31.70
2019-06-10T12:13:38.200Z,31.80
2019-06-10T12:14:39.893Z,31.80
2019-06-10T12:16:30.646Z,31.80
2019-06-10T12:17:55.595Z,31.60
2019-06-10T12:18:54.196Z,31.60
2019-06-10T12:19:59.573Z,31.40
2019-06-10T12:21:03.340Z,31.40
2019-06-10T12:22:07.178Z,31.50
2019-06-10T12:23:06.394Z,31.50
2019-06-10T12:24:08.095Z,31.40
2019-06-10T12:25:30.389Z,31.50
2019-06-10T12:26:13.550Z,31.50
2019-06-10T12:27:15.135Z,31.50
2019-06-10T12:28:16.887Z,31.60
2019-06-10T12:29:18.584Z,31.60
2019-06-10T12:30:23.304Z,31.70
2019-06-10T12:31:24.878Z,31.70
2019-06-10T12:32:26.572Z,31.90
2019-06-10T12:33:28.187Z,31.90
2019-06-10T12:34:32.994Z,32.10
2019-06-10T12:35:33.420Z,32.10
2019-06-10T12:36:35.386Z,32.10
2019-06-10T12:37:36.885Z,32.10
2019-06-10T12:38:38.525Z,32.00
2019-06-10T12:39:42.215Z,31.90
2019-06-10T12:40:43.735Z,31.90
2019-06-10T12:41:45.404Z,31.90
2019-06-10T12:42:47.014Z,31.90
2019-06-10T12:43:48.722Z,31.90
2019-06-10T12:44:50.444Z,31.90
2019-06-10T12:45:55.705Z,31.90
2019-06-10T12:47:00.560Z,32.00
2019-06-10T12:48:05.080Z,32.00
2019-06-10T12:49:08.470Z,32.10
2019-06-10T12:50:12.040Z,32.20
2019-06-10T12:51:14.064Z,32.20
2019-06-10T12:52:15.736Z,32.30
2019-06-10T12:53:17.431Z,32.40
2019-06-10T12:54:19.171Z,32.40
2019-06-10T12:55:35.622Z,32.50
2019-06-10T12:56:25.231Z,32.60
2019-06-10T12:57:26.773Z,32.70
2019-06-10T12:58:28.367Z,32.80
2019-06-10T12:59:32.264Z,32.70
2019-06-10T13:00:46.116Z,32.70
2019-06-10T13:01:47.813Z,32.80
2019-06-10T13:02:49.788Z,32.80
2019-06-10T13:03:53.612Z,32.80
2019-06-10T13:05:15.007Z,32.70
2019-06-10T13:06:17.207Z,32.60
2019-06-10T13:07:22.625Z,32.60
2019-06-10T13:08:26.989Z,32.60
2019-06-10T13:09:29.792Z,32.50
2019-06-10T13:10:39.504Z,32.50
2019-06-10T13:11:43.388Z,32.50
2019-06-10T13:12:44.678Z,32.40
2019-06-10T13:13:46.277Z,32.50
2019-06-10T13:14:47.852Z,32.50
2019-06-10T13:15:49.512Z,32.50
2019-06-10T13:16:52.641Z,32.50
2019-06-10T13:17:56.048Z,32.50
2019-06-10T13:18:58.006Z,32.50
2019-06-10T13:19:59.705Z,32.40
2019-06-10T13:21:07.280Z,32.30
2019-06-10T13:22:06.354Z,32.30
2019-06-10T13:23:23.046Z,32.30
2019-06-10T13:24:13.204Z,32.30
2019-06-10T13:25:15.485Z,32.40
2019-06-10T13:26:18.004Z,32.50
2019-06-10T13:27:19.843Z,32.50
2019-06-10T13:28:22.241Z,32.60
2019-06-10T13:29:25.208Z,32.60
2019-06-10T13:30:26.898Z,32.70
2019-06-10T13:31:28.627Z,32.70